Time;durP1;ratioP1;P1;durP2;ratioP2;P2;SDS_P1;SDS_P2;PMS_P1;PMS_P2;Temp;Humidity;BMP_temperature;BMP_pressure;BME280_temperature;BME280_humidity;BME280_pressure;Samples;Min_cycle;Max_cycle;Signal;HPM_P1;HPM_P2
2023/09/03 00:02:22;;;;;;;2.00;1.63;;;15.50;99.90;;;;;;5010140;28;20461;-63
2023/09/03 00:04:49;;;;;;;1.80;1.70;;;15.50;99.90;;;;;;5010313;28;20442;-63
2023/09/03 00:07:16;;;;;;;1.93;1.60;;;15.50;99.90;;;;;;5009337;28;20856;-63
2023/09/03 00:09:43;;;;;;;1.60;1.50;;;15.50;99.90;;;;;;5009665;28;20451;-63
2023/09/03 00:12:10;;;;;;;2.13;1.43;;;15.50;99.90;;;;;;5009735;28;20945;-63
2023/09/03 00:14:37;;;;;;;1.93;1.63;;;15.50;99.90;;;;;;5009546;28;20493;-63
2023/09/03 00:17:04;;;;;;;2.47;2.00;;;15.40;99.90;;;;;;5008492;28;20486;-63
2023/09/03 00:19:32;;;;;;;1.60;1.50;;;15.40;99.90;;;;;;5009505;28;20450;-63
2023/09/03 00:21:59;;;;;;;2.90;1.50;;;15.40;99.90;;;;;;5008659;28;20543;-63
2023/09/03 00:24:26;;;;;;;2.23;2.03;;;15.40;99.90;;;;;;5009467;28;21238;-63
2023/09/03 00:26:53;;;;;;;2.13;1.97;;;15.30;99.90;;;;;;5008776;28;20478;-63
2023/09/03 00:29:20;;;;;;;1.80;1.70;;;15.30;99.90;;;;;;5009617;28;20921;-63
2023/09/03 00:31:47;;;;;;;2.30;1.70;;;15.30;99.90;;;;;;5009554;28;20476;-63
2023/09/03 00:34:14;;;;;;;1.47;1.37;;;15.20;99.90;;;;;;5007653;28;20452;-63
2023/09/03 00:36:42;;;;;;;1.33;1.23;;;15.20;99.90;;;;;;5008417;28;20847;-63
2023/09/03 00:39:09;;;;;;;2.77;2.20;;;15.20;99.90;;;;;;5009178;28;20544;-63
2023/09/03 00:41:35;;;;;;;13.47;2.60;;;15.20;99.90;;;;;;5008790;28;20463;-63
2023/09/03 00:44:03;;;;;;;2.83;1.53;;;15.20;99.90;;;;;;5009178;28;20455;-63
2023/09/03 00:46:30;;;;;;;5.13;1.90;;;15.20;99.90;;;;;;5008297;28;20471;-63
2023/09/03 00:48:58;;;;;;;1.60;1.50;;;15.10;99.90;;;;;;5009077;28;20876;-63
2023/09/03 00:51:25;;;;;;;2.10;1.73;;;15.10;99.90;;;;;;5009446;28;20451;-63
2023/09/03 00:53:57;;;;;;;1.60;1.40;;;15.10;99.90;;;;;;5009066;28;20540;-63
2023/09/03 00:56:23;;;;;;;2.37;1.80;;;15.10;99.90;;;;;;5008154;28;20564;-63
2023/09/03 00:58:50;;;;;;;3.03;1.60;;;15.10;99.90;;;;;;5009095;28;20825;-63
2023/09/03 01:01:18;;;;;;;1.73;1.63;;;15.10;99.90;;;;;;5009019;28;20446;-63
2023/09/03 01:03:46;;;;;;;1.80;1.70;;;15.10;99.90;;;;;;5009031;28;20449;-63
2023/09/03 01:06:13;;;;;;;2.10;1.50;;;15.00;99.90;;;;;;5007977;28;20466;-63
2023/09/03 01:08:39;;;;;;;2.40;1.67;;;15.00;99.90;;;;;;5008946;28;20450;-63
2023/09/03 01:11:25;;;;;;;2.60;1.50;;;15.00;99.90;;;;;;5008757;28;20454;-63
2023/09/03 01:14:00;;;;;;;4.03;1.70;;;15.00;99.90;;;;;;5009178;28;20446;-63
2023/09/03 01:16:47;;;;;;;2.27;1.80;;;15.00;99.90;;;;;;5007970;28;20901;-63
2023/09/03 01:19:37;;;;;;;2.87;2.40;;;14.90;99.90;;;;;;5008786;28;20963;-63
2023/09/03 01:22:14;;;;;;;2.20;1.60;;;14.90;99.90;;;;;;5008860;28;20896;-63
2023/09/03 01:24:54;;;;;;;4.07;2.30;;;14.90;99.90;;;;;;5009090;28;20533;-63
2023/09/03 01:27:32;;;;;;;5.40;2.03;;;14.90;99.90;;;;;;5008167;28;21249;-62
2023/09/03 01:30:01;;;;;;;4.00;1.53;;;14.80;99.90;;;;;;5009262;28;20534;-63
2023/09/03 01:32:28;;;;;;;2.37;1.87;;;14.80;99.90;;;;;;5007789;28;20504;-63
2023/09/03 01:34:55;;;;;;;1.53;1.47;;;14.80;99.90;;;;;;5012505;28;20490;-63
2023/09/03 01:37:22;;;;;;;1.80;1.33;;;14.80;99.90;;;;;;5011481;28;20580;-63
2023/09/03 01:39:49;;;;;;;2.30;1.47;;;14.80;99.90;;;;;;5012395;28;20763;-63
2023/09/03 01:42:16;;;;;;;2.90;1.80;;;14.70;99.90;;;;;;5012355;28;20450;-63
2023/09/03 01:44:43;;;;;;;3.03;1.80;;;14.70;99.90;;;;;;5012195;28;20896;-63
2023/09/03 01:47:21;;;;;;;2.43;2.23;;;14.70;99.90;;;;;;5011421;28;20554;-63
2023/09/03 01:49:55;;;;;;;4.17;2.07;;;14.60;99.90;;;;;;5011824;28;20538;-63
2023/09/03 01:52:28;;;;;;;2.07;1.93;;;14.70;99.90;;;;;;5012191;28;20451;-63
2023/09/03 01:54:58;;;;;;;1.90;1.70;;;14.60;99.90;;;;;;5012055;28;20782;-63
2023/09/03 01:57:29;;;;;;;2.00;1.67;;;14.60;99.90;;;;;;5010969;28;20470;-63
2023/09/03 01:59:58;;;;;;;2.27;2.17;;;14.60;99.90;;;;;;5012117;28;21119;-63
2023/09/03 02:02:29;;;;;;;3.83;1.97;;;14.60;99.90;;;;;;5012045;28;20817;-63
2023/09/03 02:04:56;;;;;;;1.80;1.70;;;14.60;99.90;;;;;;5011733;28;20452;-63
2023/09/03 02:07:24;;;;;;;4.03;2.23;;;14.60;99.90;;;;;;5011010;28;20562;-63
2023/09/03 02:09:50;;;;;;;2.20;2.00;;;14.60;99.90;;;;;;5011607;28;20450;-63
2023/09/03 02:12:23;;;;;;;2.23;1.80;;;14.50;99.90;;;;;;5011466;28;20977;-65
2023/09/03 02:14:50;;;;;;;4.90;3.70;;;14.60;99.90;;;;;;5011616;28;20517;-65
2023/09/03 02:17:19;;;;;;;1.80;1.70;;;14.50;99.90;;;;;;5010650;28;20576;-64
2023/09/03 02:19:48;;;;;;;3.63;2.27;;;14.60;99.90;;;;;;5011616;28;20461;-64
2023/09/03 02:22:15;;;;;;;2.13;1.90;;;14.50;99.90;;;;;;5011506;28;20454;-64
2023/09/03 02:24:42;;;;;;;2.10;1.90;;;14.50;99.90;;;;;;5011869;28;20533;-65
2023/09/03 02:27:09;;;;;;;2.77;1.80;;;14.50;99.90;;;;;;5010844;28;20481;-64
2023/09/03 02:29:36;;;;;;;2.60;2.10;;;14.50;99.90;;;;;;5011406;28;20943;-65
2023/09/03 02:32:04;;;;;;;2.60;2.40;;;14.50;99.90;;;;;;5011221;28;20461;-65
2023/09/03 02:34:30;;;;;;;5.00;2.33;;;14.50;99.90;;;;;;5011274;28;20481;-65
2023/09/03 02:36:59;;;;;;;2.43;2.33;;;14.50;99.90;;;;;;5010510;28;20969;-64
2023/09/03 02:39:25;;;;;;;2.40;2.20;;;14.50;99.90;;;;;;5011111;28;20451;-65
2023/09/03 02:41:52;;;;;;;2.53;2.33;;;14.50;99.90;;;;;;5011102;28;20450;-65
2023/09/03 02:44:19;;;;;;;3.77;2.10;;;14.50;99.90;;;;;;5010235;28;20867;-64
2023/09/03 02:46:46;;;;;;;2.40;2.30;;;14.50;99.90;;;;;;5009777;28;20462;-64
2023/09/03 02:49:13;;;;;;;3.27;3.07;;;14.50;99.90;;;;;;5010683;28;20480;-64
2023/09/03 02:51:40;;;;;;;2.20;2.10;;;14.50;99.90;;;;;;5010906;28;20455;-64
2023/09/03 02:54:08;;;;;;;2.80;2.33;;;14.50;99.90;;;;;;5011019;28;20459;-65
2023/09/03 02:56:35;;;;;;;3.33;2.70;;;14.50;99.90;;;;;;5010017;28;20498;-64
2023/09/03 02:59:02;;;;;;;3.57;3.33;;;14.50;99.90;;;;;;5010713;28;20677;-65
2023/09/03 03:01:29;;;;;;;2.77;2.57;;;14.50;99.90;;;;;;5011041;28;20451;-64
2023/09/03 03:03:56;;;;;;;2.60;2.40;;;14.50;99.90;;;;;;5010420;28;20454;-64
2023/09/03 03:06:23;;;;;;;3.13;2.30;;;14.50;99.90;;;;;;5009906;28;20458;-65
2023/09/03 03:08:50;;;;;;;2.47;2.23;;;14.50;99.90;;;;;;5010600;28;20460;-64
2023/09/03 03:11:18;;;;;;;3.23;2.07;;;14.50;99.90;;;;;;5007198;28;20454;-64
2023/09/03 03:13:47;;;;;;;4.20;2.90;;;14.50;99.90;;;;;;5010587;28;20451;-64
2023/09/03 03:16:15;;;;;;;2.97;2.87;;;14.50;99.90;;;;;;5009362;28;20584;-64
2023/09/03 03:18:43;;;;;;;2.00;1.90;;;14.50;99.90;;;;;;5010500;28;20446;-64
2023/09/03 03:21:14;;;;;;;2.37;2.17;;;14.50;99.90;;;;;;5010745;28;20454;-64
2023/09/03 03:23:41;;;;;;;3.30;2.73;;;14.50;99.90;;;;;;5010478;28;20454;-64
2023/09/03 03:26:09;;;;;;;3.90;2.70;;;14.50;99.90;;;;;;5009167;28;20455;-65
2023/09/03 03:28:37;;;;;;;3.33;2.30;;;14.50;99.90;;;;;;5010097;28;21020;-64
2023/09/03 03:31:10;;;;;;;5.37;4.97;;;14.50;99.90;;;;;;5010313;28;20457;-64
2023/09/03 03:33:38;;;;;;;2.80;2.50;;;14.60;99.90;;;;;;5008494;28;20476;-64
2023/09/03 03:36:05;;;;;;;3.23;2.07;;;14.50;99.90;;;;;;5009316;28;20490;-65
2023/09/03 03:38:32;;;;;;;3.37;2.00;;;14.50;99.90;;;;;;5009930;28;20460;-65
2023/09/03 03:41:09;;;;;;;5.70;3.07;;;14.60;99.90;;;;;;5009779;28;20545;-64
2023/09/03 03:43:38;;;;;;;3.60;3.30;;;14.60;99.90;;;;;;5009955;28;20810;-64
2023/09/03 03:46:05;;;;;;;4.43;3.37;;;14.60;99.90;;;;;;5009137;28;20542;-65
2023/09/03 03:48:32;;;;;;;3.23;2.80;;;14.60;99.90;;;;;;5010153;28;20462;-65
2023/09/03 03:50:59;;;;;;;8.63;3.30;;;14.60;99.90;;;;;;5009898;28;20462;-65
2023/09/03 03:53:26;;;;;;;2.87;2.60;;;14.60;99.90;;;;;;5009906;28;20466;-65
2023/09/03 03:56:00;;;;;;;3.47;2.80;;;14.70;99.90;;;;;;5008815;28;20493;-65
2023/09/03 03:58:28;;;;;;;3.27;2.93;;;14.70;99.90;;;;;;5009590;28;20455;-64
2023/09/03 04:00:56;;;;;;;4.27;3.20;;;14.70;99.90;;;;;;5009529;28;20976;-64
2023/09/03 04:03:23;;;;;;;5.63;2.63;;;14.70;99.90;;;;;;5009542;28;20453;-64
2023/09/03 04:05:57;;;;;;;4.60;3.10;;;14.70;99.90;;;;;;5009308;28;20913;-65
2023/09/03 04:08:24;;;;;;;6.97;2.47;;;14.70;99.90;;;;;;5009743;28;20446;-64
2023/09/03 04:10:58;;;;;;;5.17;3.17;;;14.70;99.90;;;;;;5009449;28;20450;-65
2023/09/03 04:13:25;;;;;;;5.77;3.50;;;14.70;99.90;;;;;;5009332;28;21134;-65
2023/09/03 04:15:52;;;;;;;2.40;2.10;;;14.70;99.90;;;;;;5008651;28;20492;-65
2023/09/03 04:18:21;;;;;;;2.50;2.30;;;14.70;99.90;;;;;;5009324;28;20458;-64
2023/09/03 04:20:50;;;;;;;3.87;2.70;;;14.70;99.90;;;;;;5009489;28;20542;-65
2023/09/03 04:23:17;;;;;;;2.73;2.33;;;14.70;99.90;;;;;;5009534;28;21035;-64
2023/09/03 04:25:44;;;;;;;2.80;2.40;;;14.70;99.90;;;;;;5009058;28;20454;-65
2023/09/03 04:28:10;;;;;;;3.53;2.90;;;14.70;99.90;;;;;;5008296;28;20471;-64
2023/09/03 04:30:38;;;;;;;2.27;2.03;;;14.70;99.90;;;;;;5009118;28;20450;-65
2023/09/03 04:33:07;;;;;;;2.57;2.37;;;14.70;99.90;;;;;;5007555;28;20899;-65
2023/09/03 04:35:35;;;;;;;2.93;2.73;;;14.70;99.90;;;;;;5008710;28;20458;-64
2023/09/03 04:38:03;;;;;;;2.87;2.67;;;14.70;99.90;;;;;;5008342;28;20569;-64
2023/09/03 04:40:33;;;;;;;5.03;2.90;;;14.70;99.90;;;;;;5009087;28;20469;-64
2023/09/03 04:43:00;;;;;;;3.83;2.63;;;14.70;99.90;;;;;;5009353;28;20452;-64
2023/09/03 04:45:26;;;;;;;2.63;2.30;;;14.70;99.90;;;;;;5009309;28;21254;-65
2023/09/03 04:47:53;;;;;;;3.03;2.40;;;14.70;99.90;;;;;;5008524;28;20481;-64
2023/09/03 04:50:20;;;;;;;3.10;2.70;;;14.70;99.90;;;;;;5009163;28;20973;-64
2023/09/03 04:52:49;;;;;;;4.20;3.00;;;14.70;99.90;;;;;;5008991;28;20449;-65
2023/09/03 04:55:16;;;;;;;3.67;3.37;;;14.70;99.90;;;;;;5008878;28;20468;-64
2023/09/03 04:57:43;;;;;;;5.83;2.80;;;14.70;99.90;;;;;;5008095;28;20505;-65
2023/09/03 05:00:11;;;;;;;3.27;2.97;;;14.70;99.90;;;;;;5008812;28;20454;-65
2023/09/03 05:02:38;;;;;;;2.57;2.10;;;14.80;99.90;;;;;;5008740;28;20657;-64
2023/09/03 05:05:06;;;;;;;4.07;2.20;;;14.70;99.90;;;;;;5008628;28;20460;-65
2023/09/03 05:07:33;;;;;;;3.27;2.73;;;14.70;99.90;;;;;;5008803;28;20465;-65
2023/09/03 05:10:01;;;;;;;4.20;2.57;;;14.70;99.90;;;;;;5012811;28;20468;-65
2023/09/03 05:12:28;;;;;;;3.17;2.70;;;14.70;99.90;;;;;;5012779;28;20453;-65
2023/09/03 05:14:54;;;;;;;2.60;2.40;;;14.70;99.90;;;;;;5012496;28;20453;-64
2023/09/03 05:17:21;;;;;;;2.40;2.20;;;14.70;99.90;;;;;;5011905;28;20554;-65
2023/09/03 05:19:48;;;;;;;4.20;3.80;;;14.70;99.90;;;;;;5012728;28;20456;-65
2023/09/03 05:22:15;;;;;;;4.07;3.20;;;14.70;99.90;;;;;;5012319;28;20530;-65
2023/09/03 05:24:42;;;;;;;3.27;2.80;;;14.80;99.90;;;;;;5012495;28;20462;-64
2023/09/03 05:27:10;;;;;;;3.93;3.30;;;14.80;99.90;;;;;;5011322;28;20469;-65
2023/09/03 05:29:37;;;;;;;3.97;3.63;;;14.80;99.90;;;;;;5012346;28;20450;-65
2023/09/03 05:32:05;;;;;;;3.10;2.80;;;14.90;99.90;;;;;;5011356;28;21018;-65
2023/09/03 05:34:31;;;;;;;3.87;3.00;;;14.90;99.90;;;;;;5012326;28;20884;-65
2023/09/03 05:36:58;;;;;;;3.47;2.60;;;14.90;99.90;;;;;;5011455;28;20500;-64
2023/09/03 05:39:26;;;;;;;3.00;2.50;;;14.90;99.90;;;;;;5012322;28;20840;-64
2023/09/03 05:41:53;;;;;;;4.50;2.80;;;14.90;99.90;;;;;;5012182;28;20628;-65
2023/09/03 05:44:21;;;;;;;3.10;2.90;;;15.00;99.90;;;;;;5012381;28;20454;-64
2023/09/03 05:46:48;;;;;;;3.43;3.10;;;15.10;99.90;;;;;;5011235;28;20497;-64
2023/09/03 05:49:15;;;;;;;4.73;3.20;;;15.10;99.90;;;;;;5012267;28;20487;-64
2023/09/03 05:51:42;;;;;;;7.50;3.50;;;15.20;99.90;;;;;;5012265;28;20460;-64
2023/09/03 05:54:08;;;;;;;3.83;2.60;;;15.20;99.90;;;;;;5012172;28;20561;-65
2023/09/03 05:56:36;;;;;;;2.93;2.73;;;15.20;99.90;;;;;;5010920;28;20498;-64
2023/09/03 05:59:05;;;;;;;3.90;3.53;;;15.20;99.90;;;;;;5011732;28;21150;-65
2023/09/03 06:01:33;;;;;;;9.63;4.03;;;15.30;99.90;;;;;;5011963;28;20453;-65
2023/09/03 06:04:04;;;;;;;4.27;3.97;;;15.30;99.90;;;;;;5011856;28;20520;-65
2023/09/03 06:06:36;;;;;;;4.03;3.17;;;15.40;99.90;;;;;;5010986;28;20986;-64
2023/09/03 06:09:04;;;;;;;3.20;2.90;;;15.40;99.90;;;;;;5012231;28;20448;-65
2023/09/03 06:11:30;;;;;;;7.33;2.70;;;15.50;99.90;;;;;;5011836;28;20453;-65
2023/09/03 06:13:57;;;;;;;2.73;2.53;;;15.50;99.90;;;;;;5011709;28;20459;-65
2023/09/03 06:16:24;;;;;;;4.20;2.80;;;15.50;99.90;;;;;;5010744;28;20498;-65
2023/09/03 06:18:52;;;;;;;5.80;2.73;;;15.60;99.90;;;;;;5010528;28;20534;-65
2023/09/03 06:21:19;;;;;;;4.10;3.70;;;15.70;99.90;;;;;;5011565;28;20450;-65
2023/09/03 06:23:46;;;;;;;4.30;4.00;;;15.80;99.90;;;;;;5011354;28;20524;-64
2023/09/03 06:26:14;;;;;;;4.70;4.30;;;15.90;99.90;;;;;;5010430;28;20930;-65
2023/09/03 06:28:41;;;;;;;3.10;2.80;;;15.90;99.90;;;;;;5011269;28;20453;-65
2023/09/03 06:31:08;;;;;;;3.80;3.47;;;16.00;99.90;;;;;;5011540;28;20565;-65
2023/09/03 06:33:36;;;;;;;4.93;4.53;;;16.10;99.90;;;;;;5009549;28;20461;-64
2023/09/03 06:36:04;;;;;;;3.60;3.40;;;16.10;99.90;;;;;;5010337;28;20532;-65
2023/09/03 06:38:31;;;;;;;3.53;3.33;;;16.20;99.90;;;;;;5011282;28;20450;-65
2023/09/03 06:40:58;;;;;;;3.83;3.50;;;16.20;99.90;;;;;;5011937;28;21055;-65
2023/09/03 06:43:25;;;;;;;3.73;3.43;;;16.30;99.90;;;;;;5011191;28;20451;-65
2023/09/03 06:45:52;;;;;;;3.53;2.90;;;16.40;99.90;;;;;;5010593;28;20546;-65
2023/09/03 06:48:18;;;;;;;3.57;3.27;;;16.50;99.90;;;;;;5010505;28;20545;-65
2023/09/03 06:50:45;;;;;;;2.83;2.63;;;16.60;99.90;;;;;;5010871;28;20457;-65
2023/09/03 06:53:13;;;;;;;3.43;3.20;;;16.70;99.90;;;;;;5010765;28;20456;-64
2023/09/03 06:55:43;;;;;;;3.27;3.07;;;16.80;99.90;;;;;;5010956;28;20547;-64
2023/09/03 06:58:10;;;;;;;2.40;2.30;;;16.90;99.90;;;;;;5010337;28;21128;-64
2023/09/03 07:00:37;;;;;;;6.87;4.00;;;17.00;99.90;;;;;;5010767;28;20514;-64
2023/09/03 07:03:04;;;;;;;3.00;2.80;;;17.10;99.90;;;;;;5011074;28;20450;-65
2023/09/03 07:05:31;;;;;;;3.10;2.90;;;17.20;99.90;;;;;;5010915;28;20847;-65
2023/09/03 07:07:58;;;;;;;6.60;3.00;;;17.30;99.90;;;;;;5010758;28;20853;-65
2023/09/03 07:10:26;;;;;;;3.10;2.90;;;17.40;99.90;;;;;;5011134;28;20451;-65
2023/09/03 07:12:53;;;;;;;2.90;2.70;;;17.50;99.90;;;;;;5010966;28;20450;-65
2023/09/03 07:15:20;;;;;;;2.73;2.53;;;17.50;99.90;;;;;;5010689;28;20448;-65
2023/09/03 07:17:46;;;;;;;3.17;2.97;;;17.60;99.90;;;;;;5009752;28;20945;-65
2023/09/03 07:20:13;;;;;;;3.17;2.97;;;17.60;99.90;;;;;;5010397;28;21194;-64
2023/09/03 07:22:41;;;;;;;3.30;3.10;;;17.70;99.90;;;;;;5010568;28;20453;-65
2023/09/03 07:25:09;;;;;;;3.40;3.20;;;17.70;99.90;;;;;;5010799;28;20468;-64
2023/09/03 07:27:38;;;;;;;3.70;3.50;;;17.80;99.90;;;;;;5009673;28;20481;-65
2023/09/03 07:30:07;;;;;;;5.20;3.30;;;18.00;99.90;;;;;;5010248;28;20456;-65
2023/09/03 07:32:34;;;;;;;3.10;2.80;;;18.10;99.90;;;;;;5008809;28;20453;-65
2023/09/03 07:35:01;;;;;;;3.93;3.73;;;18.20;99.90;;;;;;5010480;28;20448;-65
2023/09/03 07:37:28;;;;;;;2.73;2.53;;;18.30;99.90;;;;;;5009587;28;20491;-65
2023/09/03 07:39:54;;;;;;;2.70;2.50;;;18.40;99.90;;;;;;5010760;28;20463;-65
2023/09/03 07:42:21;;;;;;;2.50;2.40;;;18.40;99.90;;;;;;5010713;28;20445;-65
2023/09/03 07:44:49;;;;;;;4.37;4.00;;;18.60;99.90;;;;;;5010186;28;21198;-65
2023/09/03 07:47:16;;;;;;;3.47;2.90;;;18.70;99.90;;;;;;5009498;28;21001;-65
2023/09/03 07:49:43;;;;;;;2.47;2.27;;;18.80;99.90;;;;;;5010015;28;20488;-65
2023/09/03 07:52:11;;;;;;;2.53;2.43;;;18.90;99.90;;;;;;5009989;28;21234;-64
2023/09/03 07:54:39;;;;;;;3.00;2.80;;;19.00;99.90;;;;;;5009702;28;20948;-65
2023/09/03 07:57:06;;;;;;;2.60;2.40;;;19.10;99.90;;;;;;5008930;28;20497;-65
2023/09/03 07:59:34;;;;;;;3.00;2.60;;;19.30;99.90;;;;;;5009642;28;20451;-65
2023/09/03 08:02:03;;;;;;;3.83;3.53;;;19.40;99.90;;;;;;5009553;28;20464;-65
2023/09/03 08:04:30;;;;;;;3.00;2.80;;;19.60;99.90;;;;;;5009908;28;20461;-65
2023/09/03 08:06:57;;;;;;;3.73;3.43;;;19.70;99.90;;;;;;5009389;28;20473;-65
2023/09/03 08:09:24;;;;;;;4.10;3.80;;;19.90;99.90;;;;;;5009868;28;20833;-65
2023/09/03 08:11:51;;;;;;;4.20;3.90;;;20.00;99.90;;;;;;5009658;28;20449;-65
2023/09/03 08:14:18;;;;;;;4.53;4.23;;;20.10;99.90;;;;;;5010327;28;20457;-65
2023/09/03 08:16:45;;;;;;;5.47;4.90;;;20.20;99.90;;;;;;5009116;28;21237;-65
2023/09/03 08:19:13;;;;;;;3.93;3.60;;;20.30;99.90;;;;;;5010035;28;20454;-65
2023/09/03 08:21:41;;;;;;;4.60;4.20;;;20.40;99.90;;;;;;5009966;28;20460;-65
2023/09/03 08:24:09;;;;;;;5.80;5.40;;;20.50;99.90;;;;;;5009251;28;20458;-65
2023/09/03 08:26:36;;;;;;;5.37;4.67;;;20.60;99.90;;;;;;5008952;28;20476;-65
2023/09/03 08:29:03;;;;;;;5.20;4.70;;;20.60;99.90;;;;;;5009366;28;20553;-65
2023/09/03 08:31:30;;;;;;;5.87;5.47;;;20.70;99.90;;;;;;5009615;28;21029;-65
2023/09/03 08:33:56;;;;;;;5.97;5.47;;;20.70;99.90;;;;;;5008442;28;20459;-65
2023/09/03 08:36:25;;;;;;;6.20;5.70;;;20.80;99.90;;;;;;5008792;28;20843;-65
2023/09/03 08:38:53;;;;;;;5.80;5.30;;;20.80;99.90;;;;;;5009747;28;20859;-65
2023/09/03 08:41:23;;;;;;;5.90;5.40;;;21.00;99.90;;;;;;5009313;28;20457;-65
2023/09/03 08:43:54;;;;;;;6.30;5.90;;;21.10;99.90;;;;;;5005663;28;20454;-65
2023/09/03 08:46:26;;;;;;;6.67;6.10;;;21.20;99.90;;;;;;5007869;28;21043;-63
2023/09/03 08:48:54;;;;;;;6.63;6.00;;;21.30;99.90;;;;;;5008348;28;20446;-63
2023/09/03 08:51:21;;;;;;;5.90;5.50;;;21.40;99.90;;;;;;5009179;28;20509;-63
2023/09/03 08:53:51;;;;;;;5.90;5.50;;;21.40;99.90;;;;;;5008668;28;20545;-63
2023/09/03 08:56:19;;;;;;;6.93;6.37;;;21.50;99.90;;;;;;5008303;28;20480;-63
2023/09/03 08:58:46;;;;;;;6.50;6.00;;;21.60;99.90;;;;;;5008453;28;20480;-63
2023/09/03 09:01:14;;;;;;;7.27;6.77;;;21.70;99.90;;;;;;5008191;28;20550;-63
2023/09/03 09:03:44;;;;;;;7.40;6.80;;;21.80;99.90;;;;;;4988851;28;20831;-63
2023/09/03 09:06:12;;;;;;;6.00;5.60;;;21.80;99.90;;;;;;4988138;28;20476;-64
2023/09/03 09:08:40;;;;;;;6.60;6.10;;;21.90;99.90;;;;;;4988778;28;20551;-63
2023/09/03 09:11:14;;;;;;;6.27;5.87;;;22.00;99.90;;;;;;4988284;28;20584;-63
2023/09/03 09:13:52;;;;;;;6.30;5.77;;;22.10;99.90;;;;;;4988146;28;20539;-63
2023/09/03 09:16:20;;;;;;;7.03;5.83;;;22.20;99.90;;;;;;4987414;28;20579;-63
2023/09/03 09:18:47;;;;;;;5.87;5.37;;;22.30;99.90;;;;;;4988767;28;20493;-63
2023/09/03 09:21:14;;;;;;;7.40;6.43;;;22.30;99.90;;;;;;4988475;28;20466;-63
2023/09/03 09:23:41;;;;;;;6.37;5.83;;;22.40;99.90;;;;;;4988513;28;20457;-64
2023/09/03 09:26:17;;;;;;;5.67;5.27;;;22.50;99.90;;;;;;4987386;28;20536;-64
2023/09/03 09:28:58;;;;;;;5.30;4.90;;;22.50;99.90;;;;;;4988898;28;20458;-63
2023/09/03 09:31:29;;;;;;;6.40;5.90;;;22.50;99.90;;;;;;4988799;28;20959;-63
2023/09/03 09:33:56;;;;;;;5.23;4.83;;;22.50;99.90;;;;;;4986628;28;20461;-63
2023/09/03 09:36:23;;;;;;;5.53;5.03;;;22.60;99.90;;;;;;4987196;28;20499;-64
2023/09/03 09:38:50;;;;;;;5.90;5.40;;;22.60;99.90;;;;;;4988164;28;21122;-63
2023/09/03 09:41:26;;;;;;;5.43;5.03;;;22.70;99.90;;;;;;4987970;28;20466;-63
2023/09/03 09:43:53;;;;;;;4.80;4.40;;;22.70;99.90;;;;;;4988021;28;20484;-63
2023/09/03 09:46:31;;;;;;;5.77;5.43;;;22.80;99.90;;;;;;4986993;28;20561;-64
2023/09/03 09:48:59;;;;;;;6.23;5.83;;;22.80;99.90;;;;;;4987905;28;20869;-64
2023/09/03 09:51:27;;;;;;;5.20;4.80;;;22.80;99.90;;;;;;4988210;28;20548;-63
2023/09/03 09:53:58;;;;;;;4.73;4.33;;;22.80;99.90;;;;;;4989216;28;20454;-63
2023/09/03 09:56:31;;;;;;;4.90;4.60;;;22.90;99.90;;;;;;4991423;28;20501;-63
2023/09/03 09:58:58;;;;;;;5.30;4.90;;;22.90;99.90;;;;;;4991712;28;20497;-63
2023/09/03 10:01:27;;;;;;;4.50;4.10;;;22.90;99.90;;;;;;4991997;28;20468;-63
2023/09/03 10:03:54;;;;;;;4.07;3.80;;;23.00;99.90;;;;;;4991604;28;20553;-63
2023/09/03 10:06:23;;;;;;;5.63;5.23;;;22.90;99.90;;;;;;4990501;28;20509;-63
2023/09/03 10:08:51;;;;;;;4.50;4.20;;;22.90;99.90;;;;;;4991374;28;20921;-63
2023/09/03 10:11:18;;;;;;;4.17;3.80;;;23.00;99.90;;;;;;4991583;28;20968;-63
2023/09/03 10:13:48;;;;;;;5.07;4.67;;;23.10;99.90;;;;;;5008053;28;20448;-64
2023/09/03 10:16:19;;;;;;;4.80;4.50;;;23.10;99.90;;;;;;5021186;28;21008;-64
2023/09/03 10:18:47;;;;;;;4.50;4.20;;;23.20;99.90;;;;;;5022575;28;20492;-63
2023/09/03 10:21:18;;;;;;;5.07;4.57;;;23.30;99.90;;;;;;5014321;28;20453;-64
2023/09/03 10:23:48;;;;;;;4.43;4.13;;;23.40;99.90;;;;;;4998910;28;20447;-65
2023/09/03 10:26:20;;;;;;;4.20;3.90;;;23.40;99.90;;;;;;5021247;28;20473;-66
2023/09/03 10:28:51;;;;;;;4.20;3.97;;;23.40;99.90;;;;;;5022703;28;20453;-65
2023/09/03 10:31:19;;;;;;;4.20;4.00;;;23.50;99.90;;;;;;5013951;28;20452;-65
2023/09/03 10:33:46;;;;;;;4.80;4.47;;;23.50;99.90;;;;;;5024806;28;20822;-63
2023/09/03 10:36:18;;;;;;;5.43;4.97;;;23.50;99.90;;;;;;5017502;28;20544;-63
2023/09/03 10:38:45;;;;;;;4.17;3.87;;;23.40;99.90;;;;;;5018744;28;20569;-63
2023/09/03 10:41:20;;;;;;;4.00;3.80;;;23.40;99.90;;;;;;5026591;28;20449;-63
2023/09/03 10:43:50;;;;;;;4.47;4.17;;;23.40;99.90;;;;;;4999887;28;20877;-63
2023/09/03 10:46:17;;;;;;;4.60;4.20;;;23.40;99.90;;;;;;5020516;28;20469;-63
2023/09/03 10:48:56;;;;;;;4.50;4.20;;;23.40;99.90;;;;;;5021935;28;20468;-64
2023/09/03 10:51:43;;;;;;;5.57;5.10;;;23.50;99.90;;;;;;5013196;28;20450;-64
2023/09/03 10:54:17;;;;;;;3.97;3.77;;;23.60;99.90;;;;;;5021867;28;20442;-64
2023/09/03 10:57:16;;;;;;;4.43;4.03;;;23.60;99.90;;;;;;5020848;28;20937;-63
2023/09/03 11:00:10;;;;;;;4.13;3.83;;;23.70;99.90;;;;;;4998104;28;20520;-64
2023/09/03 11:02:39;;;;;;;5.07;4.70;;;23.70;99.90;;;;;;5018688;28;20446;-63
2023/09/03 11:05:28;;;;;;;4.97;4.57;;;23.70;99.90;;;;;;5023775;28;20469;-64
2023/09/03 11:08:22;;;;;;;4.20;3.93;;;23.80;99.90;;;;;;4998635;28;20937;-63
2023/09/03 11:10:49;;;;;;;4.30;4.00;;;23.80;99.90;;;;;;5016643;28;20574;-64
2023/09/03 11:13:16;;;;;;;4.43;4.13;;;23.80;99.90;;;;;;5025723;28;20446;-64
2023/09/03 11:15:55;;;;;;;5.40;5.00;;;23.90;99.90;;;;;;5012830;28;20448;-63
2023/09/03 11:18:23;;;;;;;4.20;3.83;;;23.90;99.90;;;;;;5020712;28;21288;-63
2023/09/03 11:20:51;;;;;;;3.83;3.57;;;24.00;99.90;;;;;;5023093;28;20475;-63
2023/09/03 11:23:19;;;;;;;4.60;4.20;;;24.10;99.90;;;;;;5012829;28;20493;-63
2023/09/03 11:25:47;;;;;;;5.20;4.80;;;24.10;99.90;;;;;;5025096;28;21089;-64
2023/09/03 11:28:15;;;;;;;4.47;4.17;;;24.20;99.90;;;;;;5016058;28;20835;-63
2023/09/03 11:30:44;;;;;;;3.93;3.73;;;24.40;99.90;;;;;;5016967;28;21052;-64
2023/09/03 11:33:24;;;;;;;4.70;4.30;;;24.50;99.90;;;;;;5022977;28;20996;-64
2023/09/03 11:35:53;;;;;;;5.13;4.83;;;24.50;99.90;;;;;;4997733;28;20524;-64
2023/09/03 11:38:21;;;;;;;4.30;4.00;;;24.50;99.90;;;;;;5019174;28;21090;-64
2023/09/03 11:40:48;;;;;;;4.40;4.00;;;24.50;99.90;;;;;;5021584;28;21058;-63
2023/09/03 11:43:15;;;;;;;4.83;4.43;;;24.50;99.90;;;;;;5012792;28;20529;-64
2023/09/03 11:45:42;;;;;;;4.53;4.23;;;24.40;99.90;;;;;;5012227;28;20446;-63
2023/09/03 11:48:08;;;;;;;3.77;3.57;;;24.50;99.90;;;;;;5020339;28;20458;-63
2023/09/03 11:50:37;;;;;;;3.73;3.43;;;24.50;99.90;;;;;;5019669;28;20494;-64
2023/09/03 11:53:09;;;;;;;4.10;3.80;;;24.60;99.90;;;;;;5013930;28;20484;-64
2023/09/03 11:55:38;;;;;;;4.10;3.80;;;24.70;99.90;;;;;;5024688;28;20839;-64
2023/09/03 11:58:08;;;;;;;4.23;3.37;;;24.80;99.90;;;;;;5014431;28;20499;-63
2023/09/03 12:00:35;;;;;;;4.60;4.27;;;24.80;99.90;;;;;;5017292;28;20450;-64
2023/09/03 12:03:03;;;;;;;3.33;3.13;;;24.90;99.90;;;;;;5022367;28;20451;-64
2023/09/03 12:05:30;;;;;;;4.23;3.93;;;24.90;99.90;;;;;;5011040;28;20450;-64
2023/09/03 12:08:02;;;;;;;4.30;3.93;;;25.00;99.90;;;;;;5021554;28;20545;-64
2023/09/03 12:10:30;;;;;;;3.93;3.50;;;25.10;99.90;;;;;;5018056;28;20457;-64
2023/09/03 12:12:59;;;;;;;3.73;3.53;;;25.20;99.50;;;;;;5014226;28;20448;-66
2023/09/03 12:15:26;;;;;;;5.20;4.20;;;25.30;99.50;;;;;;5023596;28;20970;-66
2023/09/03 12:17:53;;;;;;;3.10;2.90;;;25.40;99.90;;;;;;5011020;28;20939;-66
2023/09/03 12:20:36;;;;;;;4.70;4.40;;;25.50;99.90;;;;;;5019319;28;20453;-66
2023/09/03 12:23:08;;;;;;;3.93;3.57;;;25.60;99.90;;;;;;5022960;28;20608;-66
2023/09/03 12:25:36;;;;;;;4.00;3.70;;;25.70;99.90;;;;;;5011153;28;20449;-66
2023/09/03 12:28:04;;;;;;;3.83;3.63;;;25.80;99.90;;;;;;5020482;28;20477;-66
2023/09/03 12:30:56;;;;;;;3.67;3.07;;;25.90;99.90;;;;;;5006613;28;20465;-66
2023/09/03 12:33:23;;;;;;;3.77;3.57;;;26.00;99.90;;;;;;4999301;28;21873;-66
2023/09/03 12:36:10;;;;;;;4.00;3.70;;;26.10;99.90;;;;;;5014707;28;20482;-66
2023/09/03 12:38:55;;;;;;;4.03;3.83;;;26.10;99.60;;;;;;5009713;28;20544;-66
2023/09/03 12:41:25;;;;;;;4.03;3.00;;;26.00;98.70;;;;;;5005758;28;20960;-66
2023/09/03 12:43:52;;;;;;;3.23;3.13;;;26.10;98.50;;;;;;5021844;28;20542;-66
2023/09/03 12:46:19;;;;;;;3.87;3.53;;;26.10;97.60;;;;;;5014208;28;20463;-64
2023/09/03 12:48:46;;;;;;;4.37;4.07;;;26.10;99.20;;;;;;5003501;28;20453;-64
2023/09/03 12:51:15;;;;;;;3.30;3.10;;;26.20;98.30;;;;;;5004668;28;20547;-64
2023/09/03 12:53:42;;;;;;;3.00;2.80;;;26.20;97.60;;;;;;5017369;22;21034;-63
2023/09/03 12:56:10;;;;;;;3.87;3.67;;;26.30;97.40;;;;;;5020074;28;20822;-63
2023/09/03 12:58:37;;;;;;;4.47;3.70;;;26.30;98.30;;;;;;5010348;28;20496;-63